sensor_id;sensor_type;location;lat;lon;timestamp;P1;durP1;ratioP1;P2;durP2;ratioP2
33644;SDS011;19986;48.190;16.366;2022-11-15T05:06:49;151.45;;;85.05;;
33644;SDS011;19986;48.190;16.366;2022-11-15T05:09:17;144.40;;;80.60;;
33644;SDS011;19986;48.190;16.366;2022-11-15T05:11:44;140.18;;;79.97;;
33644;SDS011;19986;48.190;16.366;2022-11-15T05:14:11;147.25;;;82.88;;
33644;SDS011;19986;48.190;16.366;2022-11-15T05:16:37;147.32;;;80.38;;
33644;SDS011;19986;48.190;16.366;2022-11-15T05:19:03;152.10;;;79.88;;
33644;SDS011;19986;48.190;16.366;2022-11-15T05:21:29;149.88;;;84.13;;
33644;SDS011;19986;48.190;16.366;2022-11-15T05:23:56;149.73;;;84.05;;
33644;SDS011;19986;48.190;16.366;2022-11-15T05:26:22;160.40;;;82.10;;
33644;SDS011;19986;48.190;16.366;2022-11-15T05:28:53;162.55;;;78.80;;
33644;SDS011;19986;48.190;16.366;2022-11-15T05:31:21;145.25;;;81.80;;
33644;SDS011;19986;48.190;16.366;2022-11-15T05:33:48;176.35;;;83.32;;
33644;SDS011;19986;48.190;16.366;2022-11-15T05:39:03;114.72;;;77.70;;
33644;SDS011;19986;48.190;16.366;2022-11-15T05:41:32;112.07;;;76.35;;
33644;SDS011;19986;48.190;16.366;2022-11-15T05:44:05;137.50;;;76.30;;
33644;SDS011;19986;48.190;16.366;2022-11-15T05:46:34;129.85;;;79.20;;
33644;SDS011;19986;48.190;16.366;2022-11-15T05:49:03;125.88;;;77.78;;
33644;SDS011;19986;48.190;16.366;2022-11-15T05:51:33;123.00;;;79.15;;
33644;SDS011;19986;48.190;16.366;2022-11-15T05:53:59;133.13;;;81.20;;
33644;SDS011;19986;48.190;16.366;2022-11-15T05:56:26;134.27;;;78.22;;
33644;SDS011;19986;48.190;16.366;2022-11-15T05:58:53;148.85;;;79.50;;
33644;SDS011;19986;48.190;16.366;2022-11-15T06:01:20;116.32;;;75.10;;
33644;SDS011;19986;48.190;16.366;2022-11-15T06:03:46;131.88;;;74.88;;
33644;SDS011;19986;48.190;16.366;2022-11-15T06:06:12;109.55;;;76.45;;
33644;SDS011;19986;48.190;16.366;2022-11-15T06:08:38;106.68;;;75.47;;
33644;SDS011;19986;48.190;16.366;2022-11-15T06:11:04;102.82;;;74.18;;
33644;SDS011;19986;48.190;16.366;2022-11-15T06:13:31;103.88;;;77.00;;
33644;SDS011;19986;48.190;16.366;2022-11-15T06:15:58;101.80;;;76.38;;
33644;SDS011;19986;48.190;16.366;2022-11-15T06:18:24;114.10;;;76.65;;
33644;SDS011;19986;48.190;16.366;2022-11-15T06:20:50;110.45;;;77.85;;
33644;SDS011;19986;48.190;16.366;2022-11-15T06:23:16;110.65;;;76.13;;
33644;SDS011;19986;48.190;16.366;2022-11-15T06:25:42;116.65;;;79.85;;
33644;SDS011;19986;48.190;16.366;2022-11-15T06:28:08;110.53;;;76.32;;
33644;SDS011;19986;48.190;16.366;2022-11-15T06:30:33;119.13;;;76.15;;
33644;SDS011;19986;48.190;16.366;2022-11-15T06:33:03;119.57;;;77.22;;
33644;SDS011;19986;48.190;16.366;2022-11-15T06:35:30;112.05;;;74.70;;
33644;SDS011;19986;48.190;16.366;2022-11-15T06:38:03;111.13;;;74.05;;
33644;SDS011;19986;48.190;16.366;2022-11-15T06:40:37;110.55;;;74.07;;
33644;SDS011;19986;48.190;16.366;2022-11-15T06:43:04;118.10;;;77.47;;
33644;SDS011;19986;48.190;16.366;2022-11-15T06:45:30;126.40;;;76.45;;
33644;SDS011;19986;48.190;16.366;2022-11-15T06:47:57;106.75;;;73.93;;
33644;SDS011;19986;48.190;16.366;2022-11-15T06:50:24;107.07;;;75.50;;
33644;SDS011;19986;48.190;16.366;2022-11-15T06:52:50;110.03;;;71.35;;
33644;SDS011;19986;48.190;16.366;2022-11-15T06:55:16;99.38;;;72.15;;
33644;SDS011;19986;48.190;16.366;2022-11-15T06:57:48;93.00;;;71.63;;
33644;SDS011;19986;48.190;16.366;2022-11-15T07:00:16;99.80;;;72.38;;
33644;SDS011;19986;48.190;16.366;2022-11-15T07:02:46;115.80;;;74.78;;
33644;SDS011;19986;48.190;16.366;2022-11-15T07:05:13;98.85;;;70.85;;
33644;SDS011;19986;48.190;16.366;2022-11-15T07:07:39;106.72;;;74.25;;
33644;SDS011;19986;48.190;16.366;2022-11-15T07:10:06;101.50;;;68.50;;
33644;SDS011;19986;48.190;16.366;2022-11-15T07:12:32;110.10;;;74.18;;
33644;SDS011;19986;48.190;16.366;2022-11-15T07:14:58;102.28;;;73.78;;
33644;SDS011;19986;48.190;16.366;2022-11-15T07:17:24;106.45;;;76.47;;
33644;SDS011;19986;48.190;16.366;2022-11-15T07:19:50;98.70;;;73.50;;
33644;SDS011;19986;48.190;16.366;2022-11-15T07:22:15;102.75;;;73.00;;
33644;SDS011;19986;48.190;16.366;2022-11-15T07:24:41;109.88;;;72.65;;
33644;SDS011;19986;48.190;16.366;2022-11-15T07:27:07;108.63;;;77.43;;
33644;SDS011;19986;48.190;16.366;2022-11-15T07:29:33;103.93;;;74.47;;
33644;SDS011;19986;48.190;16.366;2022-11-15T07:31:59;112.32;;;74.32;;
33644;SDS011;19986;48.190;16.366;2022-11-15T07:34:24;107.55;;;76.15;;
33644;SDS011;19986;48.190;16.366;2022-11-15T07:36:51;119.85;;;77.68;;
33644;SDS011;19986;48.190;16.366;2022-11-15T07:39:16;117.80;;;76.15;;
33644;SDS011;19986;48.190;16.366;2022-11-15T07:41:42;108.65;;;74.68;;
33644;SDS011;19986;48.190;16.366;2022-11-15T07:44:08;107.43;;;76.45;;
33644;SDS011;19986;48.190;16.366;2022-11-15T07:46:34;123.80;;;74.60;;
33644;SDS011;19986;48.190;16.366;2022-11-15T07:49:00;114.60;;;79.47;;
33644;SDS011;19986;48.190;16.366;2022-11-15T07:51:26;122.85;;;80.10;;
33644;SDS011;19986;48.190;16.366;2022-11-15T07:53:52;118.05;;;78.93;;
33644;SDS011;19986;48.190;16.366;2022-11-15T07:56:18;116.05;;;75.60;;
33644;SDS011;19986;48.190;16.366;2022-11-15T07:58:45;125.82;;;79.63;;
33644;SDS011;19986;48.190;16.366;2022-11-15T08:01:12;117.35;;;77.70;;
33644;SDS011;19986;48.190;16.366;2022-11-15T08:03:38;129.95;;;80.68;;
33644;SDS011;19986;48.190;16.366;2022-11-15T08:06:04;132.57;;;80.20;;
33644;SDS011;19986;48.190;16.366;2022-11-15T08:08:30;133.48;;;83.03;;
33644;SDS011;19986;48.190;16.366;2022-11-15T08:10:59;127.43;;;79.43;;
33644;SDS011;19986;48.190;16.366;2022-11-15T08:13:26;150.52;;;82.70;;
33644;SDS011;19986;48.190;16.366;2022-11-15T08:15:52;163.10;;;78.85;;
33644;SDS011;19986;48.190;16.366;2022-11-15T08:18:25;136.65;;;80.60;;
33644;SDS011;19986;48.190;16.366;2022-11-15T08:20:51;137.65;;;82.90;;
33644;SDS011;19986;48.190;16.366;2022-11-15T08:23:17;140.30;;;81.45;;
33644;SDS011;19986;48.190;16.366;2022-11-15T08:25:43;143.48;;;82.45;;
33644;SDS011;19986;48.190;16.366;2022-11-15T08:28:09;133.55;;;79.30;;
33644;SDS011;19986;48.190;16.366;2022-11-15T08:30:39;126.38;;;76.20;;
33644;SDS011;19986;48.190;16.366;2022-11-15T08:33:10;139.48;;;82.07;;
33644;SDS011;19986;48.190;16.366;2022-11-15T08:35:39;133.63;;;80.28;;
33644;SDS011;19986;48.190;16.366;2022-11-15T08:38:06;143.30;;;83.47;;
33644;SDS011;19986;48.190;16.366;2022-11-15T08:40:31;144.48;;;81.22;;
33644;SDS011;19986;48.190;16.366;2022-11-15T08:42:57;139.60;;;80.63;;
33644;SDS011;19986;48.190;16.366;2022-11-15T08:45:24;118.50;;;78.50;;
33644;SDS011;19986;48.190;16.366;2022-11-15T08:47:50;133.60;;;79.68;;
33644;SDS011;19986;48.190;16.366;2022-11-15T08:50:16;120.18;;;79.32;;
33644;SDS011;19986;48.190;16.366;2022-11-15T08:52:42;127.53;;;79.40;;
33644;SDS011;19986;48.190;16.366;2022-11-15T08:55:08;133.43;;;79.72;;
33644;SDS011;19986;48.190;16.366;2022-11-15T08:57:34;121.45;;;77.05;;
33644;SDS011;19986;48.190;16.366;2022-11-15T09:00:00;105.07;;;75.95;;
33644;SDS011;19986;48.190;16.366;2022-11-15T09:02:26;116.57;;;73.15;;
33644;SDS011;19986;48.190;16.366;2022-11-15T09:04:52;109.75;;;72.50;;
33644;SDS011;19986;48.190;16.366;2022-11-15T09:07:18;110.35;;;75.00;;
33644;SDS011;19986;48.190;16.366;2022-11-15T09:09:43;125.70;;;77.88;;
33644;SDS011;19986;48.190;16.366;2022-11-15T09:12:09;118.65;;;76.25;;
33644;SDS011;19986;48.190;16.366;2022-11-15T09:14:35;115.07;;;78.85;;
33644;SDS011;19986;48.190;16.366;2022-11-15T09:17:01;126.43;;;76.47;;
33644;SDS011;19986;48.190;16.366;2022-11-15T09:19:27;120.80;;;76.10;;
33644;SDS011;19986;48.190;16.366;2022-11-15T09:21:53;121.63;;;76.53;;
33644;SDS011;19986;48.190;16.366;2022-11-15T09:24:19;125.43;;;77.88;;
33644;SDS011;19986;48.190;16.366;2022-11-15T09:26:46;133.32;;;80.25;;
33644;SDS011;19986;48.190;16.366;2022-11-15T09:29:12;141.45;;;78.93;;
33644;SDS011;19986;48.190;16.366;2022-11-15T09:31:37;187.65;;;85.88;;
33644;SDS011;19986;48.190;16.366;2022-11-15T09:34:03;172.30;;;81.88;;
33644;SDS011;19986;48.190;16.366;2022-11-15T09:36:30;128.88;;;81.82;;
33644;SDS011;19986;48.190;16.366;2022-11-15T09:38:57;129.93;;;83.30;;
33644;SDS011;19986;48.190;16.366;2022-11-15T09:41:36;128.35;;;79.38;;
33644;SDS011;19986;48.190;16.366;2022-11-15T09:49:52;124.88;;;80.30;;
33644;SDS011;19986;48.190;16.366;2022-11-15T09:52:22;138.35;;;85.43;;
33644;SDS011;19986;48.190;16.366;2022-11-15T09:54:49;143.63;;;83.20;;
33644;SDS011;19986;48.190;16.366;2022-11-15T09:57:18;165.15;;;84.90;;
33644;SDS011;19986;48.190;16.366;2022-11-15T10:05:10;154.50;;;82.93;;
33644;SDS011;19986;48.190;16.366;2022-11-15T10:10:41;157.50;;;88.70;;
33644;SDS011;19986;48.190;16.366;2022-11-15T10:13:31;184.73;;;88.78;;
33644;SDS011;19986;48.190;16.366;2022-11-15T10:16:17;195.73;;;88.55;;
33644;SDS011;19986;48.190;16.366;2022-11-15T10:21:54;139.95;;;85.07;;
33644;SDS011;19986;48.190;16.366;2022-11-15T10:24:28;177.82;;;88.70;;
33644;SDS011;19986;48.190;16.366;2022-11-15T10:27:00;166.15;;;84.90;;
33644;SDS011;19986;48.190;16.366;2022-11-15T10:29:31;184.80;;;87.25;;
33644;SDS011;19986;48.190;16.366;2022-11-15T10:31:57;156.38;;;86.53;;
33644;SDS011;19986;48.190;16.366;2022-11-15T10:34:23;160.18;;;87.68;;
33644;SDS011;19986;48.190;16.366;2022-11-15T10:36:57;157.80;;;85.82;;
33644;SDS011;19986;48.190;16.366;2022-11-15T10:39:25;174.38;;;88.25;;
33644;SDS011;19986;48.190;16.366;2022-11-15T10:41:52;168.68;;;87.32;;
33644;SDS011;19986;48.190;16.366;2022-11-15T10:47:26;209.90;;;92.13;;
33644;SDS011;19986;48.190;16.366;2022-11-15T10:49:55;166.00;;;87.78;;
33644;SDS011;19986;48.190;16.366;2022-11-15T10:52:26;226.02;;;90.75;;
33644;SDS011;19986;48.190;16.366;2022-11-15T10:54:55;181.65;;;84.50;;
33644;SDS011;19986;48.190;16.366;2022-11-15T10:57:29;157.40;;;90.13;;
33644;SDS011;19986;48.190;16.366;2022-11-15T11:00:02;181.05;;;89.15;;
33644;SDS011;19986;48.190;16.366;2022-11-15T11:02:38;164.65;;;89.40;;
33644;SDS011;19986;48.190;16.366;2022-11-15T11:10:57;179.85;;;86.90;;
33644;SDS011;19986;48.190;16.366;2022-11-15T11:13:25;196.77;;;92.07;;
33644;SDS011;19986;48.190;16.366;2022-11-15T11:21:49;168.00;;;86.32;;
33644;SDS011;19986;48.190;16.366;2022-11-15T11:38:15;134.40;;;87.00;;
33644;SDS011;19986;48.190;16.366;2022-11-15T11:48:48;136.30;;;82.57;;
33644;SDS011;19986;48.190;16.366;2022-11-15T11:51:43;128.20;;;80.22;;
33644;SDS011;19986;48.190;16.366;2022-11-15T11:54:17;114.93;;;79.93;;
33644;SDS011;19986;48.190;16.366;2022-11-15T11:56:49;116.25;;;79.68;;
33644;SDS011;19986;48.190;16.366;2022-11-15T12:02:14;109.78;;;79.05;;
33644;SDS011;19986;48.190;16.366;2022-11-15T12:04:51;122.80;;;81.25;;
33644;SDS011;19986;48.190;16.366;2022-11-15T12:07:25;115.32;;;81.22;;
33644;SDS011;19986;48.190;16.366;2022-11-15T12:15:23;109.97;;;80.38;;
33644;SDS011;19986;48.190;16.366;2022-11-15T12:17:58;105.43;;;75.72;;
33644;SDS011;19986;48.190;16.366;2022-11-15T12:20:27;101.68;;;75.63;;
33644;SDS011;19986;48.190;16.366;2022-11-15T12:23:03;103.93;;;77.13;;
33644;SDS011;19986;48.190;16.366;2022-11-15T12:25:44;99.32;;;77.00;;
33644;SDS011;19986;48.190;16.366;2022-11-15T12:28:38;107.63;;;79.30;;
33644;SDS011;19986;48.190;16.366;2022-11-15T12:31:14;107.05;;;85.22;;
33644;SDS011;19986;48.190;16.366;2022-11-15T12:33:55;93.65;;;74.63;;
33644;SDS011;19986;48.190;16.366;2022-11-15T12:41:25;89.13;;;74.22;;
33644;SDS011;19986;48.190;16.366;2022-11-15T12:43:52;87.78;;;74.82;;
33644;SDS011;19986;48.190;16.366;2022-11-15T12:48:48;98.32;;;77.63;;
33644;SDS011;19986;48.190;16.366;2022-11-15T12:51:18;90.18;;;75.30;;
33644;SDS011;19986;48.190;16.366;2022-11-15T12:53:46;89.45;;;74.32;;
33644;SDS011;19986;48.190;16.366;2022-11-15T12:58:42;92.20;;;76.55;;
33644;SDS011;19986;48.190;16.366;2022-11-15T13:01:09;82.75;;;72.88;;
33644;SDS011;19986;48.190;16.366;2022-11-15T13:06:59;83.10;;;74.18;;
33644;SDS011;19986;48.190;16.366;2022-11-15T13:15:01;83.25;;;73.68;;
33644;SDS011;19986;48.190;16.366;2022-11-15T13:17:52;78.85;;;70.40;;
33644;SDS011;19986;48.190;16.366;2022-11-15T13:20:21;81.55;;;71.30;;
33644;SDS011;19986;48.190;16.366;2022-11-15T13:23:11;80.05;;;70.00;;
33644;SDS011;19986;48.190;16.366;2022-11-15T13:28:47;83.03;;;72.75;;
33644;SDS011;19986;48.190;16.366;2022-11-15T13:31:19;81.95;;;70.88;;
33644;SDS011;19986;48.190;16.366;2022-11-15T13:33:55;81.25;;;72.43;;
33644;SDS011;19986;48.190;16.366;2022-11-15T13:36:28;81.50;;;72.82;;
33644;SDS011;19986;48.190;16.366;2022-11-15T13:39:03;80.47;;;71.57;;
33644;SDS011;19986;48.190;16.366;2022-11-15T13:41:32;84.53;;;75.47;;
33644;SDS011;19986;48.190;16.366;2022-11-15T13:44:00;83.35;;;74.75;;
33644;SDS011;19986;48.190;16.366;2022-11-15T13:46:27;82.20;;;73.28;;
33644;SDS011;19986;48.190;16.366;2022-11-15T13:48:58;81.60;;;72.78;;
33644;SDS011;19986;48.190;16.366;2022-11-15T13:53:56;77.88;;;69.57;;
33644;SDS011;19986;48.190;16.366;2022-11-15T13:56:43;80.97;;;72.30;;
33644;SDS011;19986;48.190;16.366;2022-11-15T13:59:18;83.32;;;74.78;;
33644;SDS011;19986;48.190;16.366;2022-11-15T14:02:11;82.28;;;73.65;;
33644;SDS011;19986;48.190;16.366;2022-11-15T14:04:39;80.22;;;71.97;;
33644;SDS011;19986;48.190;16.366;2022-11-15T14:07:17;80.15;;;72.05;;
33644;SDS011;19986;48.190;16.366;2022-11-15T14:09:45;80.18;;;72.25;;
33644;SDS011;19986;48.190;16.366;2022-11-15T14:14:59;77.60;;;69.90;;
33644;SDS011;19986;48.190;16.366;2022-11-15T14:17:43;78.97;;;71.45;;
33644;SDS011;19986;48.190;16.366;2022-11-15T14:20:27;80.13;;;72.22;;
33644;SDS011;19986;48.190;16.366;2022-11-15T14:23:04;83.85;;;75.68;;
33644;SDS011;19986;48.190;16.366;2022-11-15T14:25:52;83.97;;;75.13;;
33644;SDS011;19986;48.190;16.366;2022-11-15T14:30:48;82.72;;;74.60;;
33644;SDS011;19986;48.190;16.366;2022-11-15T14:35:58;79.80;;;71.70;;
33644;SDS011;19986;48.190;16.366;2022-11-15T14:38:46;79.20;;;71.53;;
33644;SDS011;19986;48.190;16.366;2022-11-15T14:41:22;83.30;;;75.35;;
33644;SDS011;19986;48.190;16.366;2022-11-15T14:43:50;80.57;;;72.65;;
33644;SDS011;19986;48.190;16.366;2022-11-15T14:46:17;81.18;;;72.97;;
33644;SDS011;19986;48.190;16.366;2022-11-15T14:48:43;81.32;;;73.40;;
33644;SDS011;19986;48.190;16.366;2022-11-15T14:51:12;84.72;;;75.93;;
33644;SDS011;19986;48.190;16.366;2022-11-15T14:53:41;84.05;;;75.13;;
33644;SDS011;19986;48.190;16.366;2022-11-15T14:56:08;87.82;;;78.75;;
33644;SDS011;19986;48.190;16.366;2022-11-15T14:58:34;86.45;;;77.40;;
33644;SDS011;19986;48.190;16.366;2022-11-15T15:01:02;90.22;;;80.82;;
33644;SDS011;19986;48.190;16.366;2022-11-15T15:03:34;88.93;;;79.65;;
33644;SDS011;19986;48.190;16.366;2022-11-15T15:06:00;87.53;;;78.60;;
33644;SDS011;19986;48.190;16.366;2022-11-15T15:08:26;91.05;;;81.15;;
33644;SDS011;19986;48.190;16.366;2022-11-15T15:10:52;93.50;;;83.50;;
33644;SDS011;19986;48.190;16.366;2022-11-15T15:13:19;96.18;;;85.68;;
33644;SDS011;19986;48.190;16.366;2022-11-15T15:15:47;94.30;;;83.93;;
33644;SDS011;19986;48.190;16.366;2022-11-15T15:18:14;93.70;;;83.57;;
33644;SDS011;19986;48.190;16.366;2022-11-15T15:20:41;92.25;;;82.22;;
33644;SDS011;19986;48.190;16.366;2022-11-15T15:23:15;95.00;;;85.07;;
33644;SDS011;19986;48.190;16.366;2022-11-15T15:25:43;92.82;;;82.78;;
33644;SDS011;19986;48.190;16.366;2022-11-15T15:28:10;94.70;;;84.78;;
33644;SDS011;19986;48.190;16.366;2022-11-15T15:30:37;90.93;;;81.30;;
33644;SDS011;19986;48.190;16.366;2022-11-15T15:33:03;101.25;;;82.25;;
33644;SDS011;19986;48.190;16.366;2022-11-15T15:35:29;91.75;;;81.85;;
33644;SDS011;19986;48.190;16.366;2022-11-15T15:37:56;91.45;;;81.53;;
33644;SDS011;19986;48.190;16.366;2022-11-15T15:40:23;92.65;;;82.88;;
33644;SDS011;19986;48.190;16.366;2022-11-15T15:42:50;88.53;;;79.10;;
33644;SDS011;19986;48.190;16.366;2022-11-15T15:45:16;93.20;;;83.35;;
33644;SDS011;19986;48.190;16.366;2022-11-15T15:47:44;95.93;;;85.50;;
33644;SDS011;19986;48.190;16.366;2022-11-15T15:52:48;92.95;;;83.07;;
33644;SDS011;19986;48.190;16.366;2022-11-15T15:55:14;91.07;;;81.43;;
33644;SDS011;19986;48.190;16.366;2022-11-15T15:57:40;90.40;;;81.00;;
33644;SDS011;19986;48.190;16.366;2022-11-15T16:00:08;91.70;;;82.35;;
33644;SDS011;19986;48.190;16.366;2022-11-15T16:02:34;92.50;;;82.55;;
33644;SDS011;19986;48.190;16.366;2022-11-15T16:05:00;90.05;;;81.05;;
33644;SDS011;19986;48.190;16.366;2022-11-15T16:07:26;92.30;;;82.47;;
33644;SDS011;19986;48.190;16.366;2022-11-15T16:09:54;90.10;;;80.40;;
33644;SDS011;19986;48.190;16.366;2022-11-15T16:12:31;90.07;;;80.45;;
33644;SDS011;19986;48.190;16.366;2022-11-15T16:14:59;90.18;;;80.72;;
33644;SDS011;19986;48.190;16.366;2022-11-15T16:17:28;89.22;;;79.50;;
33644;SDS011;19986;48.190;16.366;2022-11-15T16:19:59;87.85;;;78.82;;
33644;SDS011;19986;48.190;16.366;2022-11-15T16:22:26;87.10;;;77.97;;
33644;SDS011;19986;48.190;16.366;2022-11-15T16:24:53;88.00;;;78.60;;
33644;SDS011;19986;48.190;16.366;2022-11-15T16:27:20;89.82;;;80.43;;
33644;SDS011;19986;48.190;16.366;2022-11-15T16:29:48;86.35;;;77.15;;
33644;SDS011;19986;48.190;16.366;2022-11-15T16:32:14;84.90;;;76.00;;
33644;SDS011;19986;48.190;16.366;2022-11-15T16:34:41;87.88;;;79.05;;
33644;SDS011;19986;48.190;16.366;2022-11-15T16:37:12;82.85;;;73.85;;
33644;SDS011;19986;48.190;16.366;2022-11-15T16:39:50;83.45;;;74.70;;
33644;SDS011;19986;48.190;16.366;2022-11-15T16:42:16;81.50;;;72.95;;
33644;SDS011;19986;48.190;16.366;2022-11-15T16:44:42;91.22;;;81.68;;
33644;SDS011;19986;48.190;16.366;2022-11-15T16:47:16;81.82;;;73.45;;
33644;SDS011;19986;48.190;16.366;2022-11-15T16:49:44;83.10;;;74.40;;
33644;SDS011;19986;48.190;16.366;2022-11-15T16:52:10;80.90;;;72.32;;
33644;SDS011;19986;48.190;16.366;2022-11-15T16:54:36;80.53;;;72.10;;
33644;SDS011;19986;48.190;16.366;2022-11-15T16:57:02;83.07;;;74.75;;
33644;SDS011;19986;48.190;16.366;2022-11-15T16:59:28;82.90;;;74.22;;
33644;SDS011;19986;48.190;16.366;2022-11-15T17:01:55;79.72;;;71.30;;
33644;SDS011;19986;48.190;16.366;2022-11-15T17:04:21;81.60;;;73.05;;
33644;SDS011;19986;48.190;16.366;2022-11-15T17:06:47;80.10;;;71.72;;
33644;SDS011;19986;48.190;16.366;2022-11-15T17:09:16;80.88;;;72.45;;
33644;SDS011;19986;48.190;16.366;2022-11-15T17:11:48;80.68;;;72.10;;
33644;SDS011;19986;48.190;16.366;2022-11-15T17:14:15;81.57;;;72.50;;
33644;SDS011;19986;48.190;16.366;2022-11-15T17:16:41;80.65;;;72.60;;
33644;SDS011;19986;48.190;16.366;2022-11-15T17:19:17;85.80;;;76.40;;
33644;SDS011;19986;48.190;16.366;2022-11-15T17:21:44;83.43;;;74.65;;
33644;SDS011;19986;48.190;16.366;2022-11-15T17:24:13;83.63;;;74.82;;
33644;SDS011;19986;48.190;16.366;2022-11-15T17:26:39;82.55;;;73.97;;
33644;SDS011;19986;48.190;16.366;2022-11-15T17:29:07;80.13;;;71.65;;
33644;SDS011;19986;48.190;16.366;2022-11-15T17:31:34;79.93;;;71.43;;
33644;SDS011;19986;48.190;16.366;2022-11-15T17:34:01;80.28;;;71.78;;
33644;SDS011;19986;48.190;16.366;2022-11-15T17:36:28;81.13;;;72.75;;
33644;SDS011;19986;48.190;16.366;2022-11-15T17:38:54;80.80;;;72.40;;
33644;SDS011;19986;48.190;16.366;2022-11-15T17:41:21;85.53;;;76.63;;
33644;SDS011;19986;48.190;16.366;2022-11-15T17:43:47;84.22;;;75.53;;
33644;SDS011;19986;48.190;16.366;2022-11-15T17:46:16;86.70;;;77.70;;
33644;SDS011;19986;48.190;16.366;2022-11-15T17:48:44;85.65;;;73.60;;
33644;SDS011;19986;48.190;16.366;2022-11-15T17:51:13;83.40;;;74.43;;
33644;SDS011;19986;48.190;16.366;2022-11-15T17:53:42;85.35;;;76.38;;
33644;SDS011;19986;48.190;16.366;2022-11-15T17:56:11;86.35;;;77.22;;
33644;SDS011;19986;48.190;16.366;2022-11-15T17:58:39;88.13;;;79.03;;
33644;SDS011;19986;48.190;16.366;2022-11-15T18:03:37;83.88;;;75.07;;
33644;SDS011;19986;48.190;16.366;2022-11-15T18:06:04;83.57;;;75.00;;
33644;SDS011;19986;48.190;16.366;2022-11-15T18:08:31;82.22;;;73.68;;
33644;SDS011;19986;48.190;16.366;2022-11-15T18:11:04;82.38;;;73.97;;
33644;SDS011;19986;48.190;16.366;2022-11-15T18:13:45;81.05;;;72.57;;
33644;SDS011;19986;48.190;16.366;2022-11-15T18:16:15;78.07;;;69.78;;
33644;SDS011;19986;48.190;16.366;2022-11-15T18:18:42;77.82;;;70.22;;
33644;SDS011;19986;48.190;16.366;2022-11-15T18:21:10;76.53;;;68.40;;
33644;SDS011;19986;48.190;16.366;2022-11-15T18:23:41;77.55;;;69.68;;
33644;SDS011;19986;48.190;16.366;2022-11-15T18:26:11;79.85;;;71.75;;
33644;SDS011;19986;48.190;16.366;2022-11-15T18:28:40;83.00;;;74.55;;
33644;SDS011;19986;48.190;16.366;2022-11-15T18:31:14;80.90;;;72.35;;
33644;SDS011;19986;48.190;16.366;2022-11-15T18:33:43;82.10;;;73.43;;
33644;SDS011;19986;48.190;16.366;2022-11-15T18:36:10;81.38;;;73.00;;
33644;SDS011;19986;48.190;16.366;2022-11-15T18:38:38;79.32;;;71.03;;
33644;SDS011;19986;48.190;16.366;2022-11-15T18:43:37;79.95;;;71.50;;
33644;SDS011;19986;48.190;16.366;2022-11-15T18:46:05;79.43;;;71.05;;
33644;SDS011;19986;48.190;16.366;2022-11-15T18:48:42;78.00;;;70.07;;
33644;SDS011;19986;48.190;16.366;2022-11-15T18:51:10;79.03;;;70.53;;
33644;SDS011;19986;48.190;16.366;2022-11-15T18:53:37;82.60;;;73.72;;
33644;SDS011;19986;48.190;16.366;2022-11-15T18:56:09;79.22;;;70.22;;
33644;SDS011;19986;48.190;16.366;2022-11-15T18:58:37;74.97;;;67.43;;
33644;SDS011;19986;48.190;16.366;2022-11-15T19:01:06;76.35;;;68.15;;
33644;SDS011;19986;48.190;16.366;2022-11-15T19:03:35;75.10;;;67.65;;
33644;SDS011;19986;48.190;16.366;2022-11-15T19:06:12;74.82;;;67.18;;
33644;SDS011;19986;48.190;16.366;2022-11-15T19:08:40;70.90;;;63.72;;
33644;SDS011;19986;48.190;16.366;2022-11-15T19:11:11;70.93;;;63.90;;
33644;SDS011;19986;48.190;16.366;2022-11-15T19:13:46;70.07;;;62.80;;
33644;SDS011;19986;48.190;16.366;2022-11-15T19:16:13;69.47;;;62.67;;
33644;SDS011;19986;48.190;16.366;2022-11-15T19:18:40;72.63;;;65.85;;
33644;SDS011;19986;48.190;16.366;2022-11-15T19:21:07;70.22;;;62.72;;
33644;SDS011;19986;48.190;16.366;2022-11-15T19:23:35;69.78;;;63.03;;
33644;SDS011;19986;48.190;16.366;2022-11-15T19:26:03;69.28;;;62.53;;
33644;SDS011;19986;48.190;16.366;2022-11-15T19:28:31;66.57;;;60.22;;
33644;SDS011;19986;48.190;16.366;2022-11-15T19:31:04;65.15;;;59.03;;
33644;SDS011;19986;48.190;16.366;2022-11-15T19:33:34;66.63;;;60.40;;
33644;SDS011;19986;48.190;16.366;2022-11-15T19:36:03;64.45;;;58.47;;
33644;SDS011;19986;48.190;16.366;2022-11-15T19:38:31;66.68;;;60.50;;
33644;SDS011;19986;48.190;16.366;2022-11-15T19:40:59;65.85;;;60.00;;
33644;SDS011;19986;48.190;16.366;2022-11-15T19:43:26;63.42;;;57.42;;
33644;SDS011;19986;48.190;16.366;2022-11-15T19:45:57;62.92;;;56.88;;
33644;SDS011;19986;48.190;16.366;2022-11-15T19:48:25;62.45;;;56.90;;
33644;SDS011;19986;48.190;16.366;2022-11-15T19:50:52;64.72;;;59.15;;
33644;SDS011;19986;48.190;16.366;2022-11-15T19:53:18;65.78;;;59.92;;
33644;SDS011;19986;48.190;16.366;2022-11-15T19:55:58;65.10;;;59.10;;
33644;SDS011;19986;48.190;16.366;2022-11-15T19:58:26;62.92;;;57.20;;
33644;SDS011;19986;48.190;16.366;2022-11-15T20:01:00;64.38;;;58.47;;
33644;SDS011;19986;48.190;16.366;2022-11-15T20:03:31;61.97;;;56.67;;
33644;SDS011;19986;48.190;16.366;2022-11-15T20:06:02;64.40;;;58.75;;
33644;SDS011;19986;48.190;16.366;2022-11-15T20:08:30;64.90;;;59.25;;
33644;SDS011;19986;48.190;16.366;2022-11-15T20:10:57;63.78;;;57.97;;
33644;SDS011;19986;48.190;16.366;2022-11-15T20:13:24;66.93;;;60.80;;
33644;SDS011;19986;48.190;16.366;2022-11-15T20:15:51;65.53;;;59.53;;
33644;SDS011;19986;48.190;16.366;2022-11-15T20:18:17;67.63;;;61.08;;
33644;SDS011;19986;48.190;16.366;2022-11-15T20:20:44;66.75;;;60.63;;
33644;SDS011;19986;48.190;16.366;2022-11-15T20:23:10;68.95;;;62.63;;
33644;SDS011;19986;48.190;16.366;2022-11-15T20:25:38;65.68;;;59.42;;
33644;SDS011;19986;48.190;16.366;2022-11-15T20:28:05;68.28;;;61.80;;
33644;SDS011;19986;48.190;16.366;2022-11-15T20:30:32;65.00;;;58.90;;
33644;SDS011;19986;48.190;16.366;2022-11-15T20:32:58;65.65;;;59.47;;
33644;SDS011;19986;48.190;16.366;2022-11-15T20:35:24;69.90;;;63.38;;
33644;SDS011;19986;48.190;16.366;2022-11-15T20:37:50;67.90;;;61.78;;
33644;SDS011;19986;48.190;16.366;2022-11-15T20:40:16;66.60;;;60.03;;
33644;SDS011;19986;48.190;16.366;2022-11-15T20:42:45;69.00;;;62.50;;
33644;SDS011;19986;48.190;16.366;2022-11-15T20:45:12;69.05;;;62.65;;
33644;SDS011;19986;48.190;16.366;2022-11-15T20:47:38;68.05;;;61.55;;
33644;SDS011;19986;48.190;16.366;2022-11-15T20:50:03;67.80;;;61.10;;
33644;SDS011;19986;48.190;16.366;2022-11-15T20:52:31;72.22;;;65.45;;
33644;SDS011;19986;48.190;16.366;2022-11-15T20:54:58;69.10;;;62.65;;
33644;SDS011;19986;48.190;16.366;2022-11-15T20:57:24;70.72;;;64.00;;
33644;SDS011;19986;48.190;16.366;2022-11-15T20:59:50;70.07;;;63.03;;
